Time;durP1;ratioP1;P1;durP2;ratioP2;P2;SDS_P1;SDS_P2;PMS_P1;PMS_P2;Temp;Humidity;BMP_temperature;BMP_pressure;BME280_temperature;BME280_humidity;BME280_pressure;Samples;Min_cycle;Max_cycle;Signal;HPM_P1;HPM_P2
2021/10/13 00:00:27;;;;;;;1.52;1.23;;;;;;;10.50;100.00;96300.63;5024502;28;20076;-59
2021/10/13 00:02:54;;;;;;;1.38;1.27;;;;;;;10.48;100.00;96305.75;5022700;28;20508;-60
2021/10/13 00:05:21;;;;;;;2.15;1.52;;;;;;;10.41;100.00;96304.94;5024160;28;20505;-60
2021/10/13 00:07:47;;;;;;;1.40;1.30;;;;;;;10.39;100.00;96318.34;5024578;28;20045;-60
2021/10/13 00:10:14;;;;;;;1.52;1.40;;;;;;;10.40;100.00;96317.97;5024286;28;20069;-60
2021/10/13 00:12:41;;;;;;;1.63;1.25;;;;;;;10.13;100.00;96283.41;5024921;28;20049;-61
2021/10/13 00:15:11;;;;;;;1.85;1.35;;;;;;;10.34;100.00;96322.28;5023240;28;20409;-60
2021/10/13 00:17:38;;;;;;;1.63;1.45;;;;;;;10.05;100.00;96261.59;5024082;28;20063;-60
2021/10/13 00:20:05;;;;;;;1.30;1.15;;;;;;;10.41;100.00;96322.34;5022614;28;20610;-61
2021/10/13 00:22:32;;;;;;;1.48;1.23;;;;;;;10.30;100.00;96304.88;5023498;28;20046;-61
2021/10/13 00:24:59;;;;;;;2.85;1.60;;;;;;;9.91;100.00;96253.97;5022511;28;20052;-60
2021/10/13 00:27:26;;;;;;;1.58;1.48;;;;;;;10.29;100.00;96324.66;5022347;28;20515;-62
2021/10/13 00:29:53;;;;;;;1.85;1.63;;;;;;;10.33;100.00;96320.72;5022311;28;20063;-60
2021/10/13 00:32:19;;;;;;;2.63;1.55;;;;;;;10.31;100.00;96327.81;5022756;28;20057;-61
2021/10/13 00:34:46;;;;;;;3.95;2.13;;;;;;;9.49;100.00;96198.38;5023841;28;20055;-62
2021/10/13 00:37:13;;;;;;;3.05;1.70;;;;;;;10.32;100.00;96335.72;5023534;28;20390;-61
2021/10/13 00:39:39;;;;;;;3.90;2.15;;;;;;;10.31;100.00;96328.59;5023662;28;20501;-62
2021/10/13 00:42:06;;;;;;;1.92;1.55;;;;;;;10.27;100.00;96333.34;5024009;28;20132;-60
2021/10/13 00:44:33;;;;;;;2.97;2.28;;;;;;;10.20;100.00;96316.66;5023649;28;20050;-62
2021/10/13 00:47:00;;;;;;;3.30;2.00;;;;;;;10.26;100.00;96326.19;5022091;28;20057;-61
2021/10/13 00:49:27;;;;;;;5.07;2.47;;;;;;;10.09;100.00;96309.47;5023416;28;20088;-60
2021/10/13 00:51:54;;;;;;;2.83;2.30;;;;;;;10.29;100.00;96336.50;5022314;28;20516;-59
2021/10/13 00:54:23;;;;;;;21.02;5.38;;;;;;;10.11;100.00;96335.59;5022966;28;20456;-60
2021/10/13 00:56:50;;;;;;;10.00;3.30;;;;;;;10.06;100.00;96338.69;5023547;28;20057;-60
2021/10/13 00:59:17;;;;;;;4.78;2.25;;;;;;;9.44;100.00;96229.16;5022258;28;20065;-61
2021/10/13 01:01:46;;;;;;;2.25;1.80;;;;;;;9.97;100.00;96337.41;5021658;28;20543;-59
2021/10/13 01:04:34;;;;;;;2.05;1.60;;;;;;;9.69;100.00;96313.06;5021916;28;20045;-60
2021/10/13 01:07:29;;;;;;;27.08;8.15;;;;;;;9.36;100.00;96351.88;5023577;28;20054;-60
2021/10/13 01:10:16;;;;;;;14.15;5.28;;;;;;;9.34;100.00;96395.69;5023328;28;20136;-59
2021/10/13 01:13:00;;;;;;;17.02;5.25;;;;;;;9.46;100.00;96348.44;5023939;28;20405;-59
2021/10/13 01:15:39;;;;;;;6.70;3.92;;;;;;;9.52;100.00;96371.78;5023098;28;20532;-61
2021/10/13 01:18:13;;;;;;;6.88;2.95;;;;;;;9.46;100.00;96351.19;5021806;28;20500;-59
2021/10/13 01:21:37;;;;;;;2.53;1.63;;;;;;;9.40;100.00;96347.19;5023116;28;20050;-59
2021/10/13 01:24:38;;;;;;;1.20;1.10;;;;;;;9.45;100.00;96346.03;5040870;28;20076;-59
2021/10/13 01:27:26;;;;;;;2.03;1.15;;;;;;;9.33;100.00;96344.34;5040098;28;20053;-59
2021/10/13 01:29:54;;;;;;;1.10;1.00;;;;;;;9.25;100.00;96337.13;5021605;28;20424;-59
2021/10/13 01:32:27;;;;;;;0.93;0.93;;;;;;;9.31;100.00;96341.16;5023190;28;20509;-60
2021/10/13 01:34:57;;;;;;;1.30;1.13;;;;;;;9.35;100.00;96342.00;5026160;28;20067;-59
2021/10/13 01:37:35;;;;;;;1.95;1.30;;;;;;;9.26;100.00;96344.28;5026998;28;20049;-60
2021/10/13 01:40:02;;;;;;;2.38;1.75;;;;;;;9.24;100.00;96346.63;5025798;28;20057;-59
2021/10/13 01:42:32;;;;;;;4.38;1.85;;;;;;;9.09;100.00;96336.56;5027298;28;20057;-59
2021/10/13 01:45:00;;;;;;;2.50;1.42;;;;;;;9.19;100.00;96333.13;5026811;28;20060;-59
2021/10/13 01:47:32;;;;;;;1.92;1.25;;;;;;;8.92;100.00;96312.31;5025763;28;20046;-59
2021/10/13 01:50:01;;;;;;;1.20;1.10;;;;;;;9.02;100.00;96295.88;5026961;28;20057;-59
2021/10/13 01:52:29;;;;;;;8.05;4.32;;;;;;;9.12;100.00;96330.28;5027217;28;20052;-59
2021/10/13 01:55:02;;;;;;;8.07;4.28;;;;;;;8.98;100.00;96335.66;5025706;28;20045;-61
2021/10/13 01:57:31;;;;;;;4.45;2.88;;;;;;;8.96;100.00;96346.31;5027612;28;20068;-59
2021/10/13 02:00:03;;;;;;;3.83;1.92;;;;;;;8.98;100.00;96339.22;5026947;28;20053;-60
2021/10/13 02:02:32;;;;;;;3.42;1.48;;;;;;;9.01;100.00;96343.19;5026460;28;20057;-59
2021/10/13 02:05:01;;;;;;;5.55;4.72;;;;;;;8.93;100.00;96336.00;5026235;28;20145;-59
2021/10/13 02:07:29;;;;;;;1.60;1.50;;;;;;;8.77;100.00;96338.94;5026285;28;20085;-60
2021/10/13 02:10:01;;;;;;;1.00;0.95;;;;;;;8.81;100.00;96350.03;5024569;28;20049;-61
2021/10/13 02:12:32;;;;;;;3.65;0.90;;;;;;;8.79;100.00;96353.19;5026342;28;20053;-61
2021/10/13 02:15:01;;;;;;;2.75;1.30;;;;;;;8.64;100.00;96364.44;5026518;28;20508;-61
2021/10/13 02:17:28;;;;;;;1.65;1.45;;;;;;;8.07;100.00;96282.00;5026637;28;20067;-60
2021/10/13 02:19:56;;;;;;;1.77;1.67;;;;;;;8.44;100.00;96346.41;5026373;28;20053;-60
2021/10/13 02:22:27;;;;;;;1.60;1.50;;;;;;;8.19;100.00;96345.25;5025724;28;20520;-62
2021/10/13 02:24:54;;;;;;;1.20;1.10;;;;;;;8.21;100.00;96353.91;5025862;28;20552;-60
2021/10/13 02:27:39;;;;;;;1.60;1.00;;;;;;;8.18;100.00;96371.22;5024650;28;20049;-60
2021/10/13 02:30:07;;;;;;;4.95;1.38;;;;;;;8.17;100.00;96351.09;5026516;28;20529;-59
2021/10/13 02:32:34;;;;;;;8.13;2.53;;;;;;;8.09;100.00;96334.84;5026325;28;20053;-60
2021/10/13 02:35:03;;;;;;;8.18;2.58;;;;;;;8.22;100.00;96355.53;5025670;28;20053;-60
2021/10/13 02:37:30;;;;;;;6.15;2.83;;;;;;;7.87;100.00;96310.88;5026384;28;20072;-61
2021/10/13 02:39:57;;;;;;;4.57;2.60;;;;;;;8.06;100.00;96338.34;5025948;28;20523;-61
2021/10/13 02:42:24;;;;;;;4.35;2.00;;;;;;;7.97;100.00;96326.75;5026104;28;20053;-61
2021/10/13 02:44:51;;;;;;;8.38;3.30;;;;;;;7.61;100.00;96306.91;5024665;28;20128;-60
2021/10/13 02:47:25;;;;;;;5.45;2.80;;;;;;;7.98;100.00;96336.63;5025441;28;20050;-61
2021/10/13 02:50:05;;;;;;;6.32;2.90;;;;;;;7.69;100.00;96325.16;5025696;28;20105;-61
2021/10/13 02:52:41;;;;;;;5.38;3.38;;;;;;;7.96;100.00;96377.56;5025827;28;20061;-63
2021/10/13 02:55:10;;;;;;;4.50;2.53;;;;;;;7.55;100.00;96391.06;5024856;28;20076;-63
2021/10/13 02:57:45;;;;;;;9.02;3.15;;;;;;;7.47;100.00;96391.31;5026093;28;20550;-59
2021/10/13 03:00:13;;;;;;;5.88;2.30;;;;;;;7.31;100.00;96388.66;5025811;28;20060;-59
2021/10/13 03:02:49;;;;;;;6.43;3.63;;;;;;;7.45;100.00;96377.09;5025148;28;20057;-60
2021/10/13 03:05:20;;;;;;;4.70;1.95;;;;;;;7.62;100.00;96404.97;5025741;28;20569;-60
2021/10/13 03:07:49;;;;;;;2.67;1.73;;;;;;;7.56;100.00;96389.91;5025818;28;20064;-60
2021/10/13 03:10:16;;;;;;;6.90;1.73;;;;;;;7.61;100.00;96386.03;5023574;28;20057;-59
2021/10/13 03:12:50;;;;;;;2.97;1.45;;;;;;;7.82;100.00;96404.91;5025429;28;20049;-60
2021/10/13 03:15:18;;;;;;;2.75;1.48;;;;;;;7.92;100.00;96407.06;5023986;28;20050;-61
2021/10/13 03:17:50;;;;;;;80.97;23.77;;;;;;;7.91;100.00;96406.25;5025282;28;20061;-60
2021/10/13 03:20:18;;;;;;;52.03;19.65;;;;;;;7.79;100.00;96389.91;5025332;28;20061;-59
2021/10/13 03:22:47;;;;;;;55.15;21.60;;;;;;;7.99;100.00;96404.41;5025053;28;20053;-60
2021/10/13 03:25:25;;;;;;;44.10;16.90;;;;;;;8.10;100.00;96408.13;5023433;28;20079;-60
2021/10/13 03:27:52;;;;;;;28.52;11.93;;;;;;;7.96;100.00;96396.88;5024926;28;20072;-60
2021/10/13 03:30:19;;;;;;;30.85;11.00;;;;;;;8.01;100.00;96411.16;5024738;28;20072;-59
2021/10/13 03:32:47;;;;;;;15.60;6.57;;;;;;;7.91;100.00;96433.03;5025072;28;20054;-60
2021/10/13 03:35:25;;;;;;;15.73;6.95;;;;;;;7.69;100.00;96394.06;5023263;28;20050;-61
2021/10/13 03:37:53;;;;;;;11.20;5.72;;;;;;;7.97;100.00;96432.34;5024798;28;20068;-60
2021/10/13 03:40:22;;;;;;;14.32;7.40;;;;;;;7.94;100.00;96432.28;5023001;28;20049;-59
2021/10/13 03:42:48;;;;;;;71.45;21.20;;;;;;;7.57;100.00;96374.16;5022708;28;20059;-60
2021/10/13 03:45:17;;;;;;;44.47;13.35;;;;;;;7.58;100.00;96395.03;5024603;28;20053;-60
2021/10/13 03:47:45;;;;;;;20.60;7.93;;;;;;;7.89;100.00;96430.63;5024219;28;20049;-60
2021/10/13 03:50:14;;;;;;;16.42;8.88;;;;;;;7.81;100.00;96434.44;5024355;28;20058;-62
2021/10/13 03:52:42;;;;;;;12.73;7.28;;;;;;;7.83;100.00;96447.84;5024835;28;20065;-60
2021/10/13 03:55:12;;;;;;;11.48;6.55;;;;;;;5.81;100.00;96127.84;5022721;28;20439;-59
2021/10/13 03:57:40;;;;;;;6.40;3.38;;;;;;;7.69;100.00;96446.44;5024109;28;20053;-59
2021/10/13 04:00:11;;;;;;;7.05;3.90;;;;;;;7.51;100.00;96420.50;5022894;28;20049;-59
2021/10/13 04:02:37;;;;;;;13.27;5.57;;;;;;;7.15;100.00;96368.66;5023864;28;20548;-60
2021/10/13 04:05:06;;;;;;;27.40;8.75;;;;;;;7.53;100.00;96431.97;5024369;28;20053;-59
2021/10/13 04:07:33;;;;;;;17.65;4.75;;;;;;;7.22;100.00;96407.34;5024228;28;20061;-61
2021/10/13 04:10:00;;;;;;;15.60;5.72;;;;;;;7.39;100.00;96445.47;5022310;28;20053;-59
2021/10/13 04:12:28;;;;;;;28.95;11.40;;;;;;;7.38;100.00;96448.59;5024719;28;20045;-59
2021/10/13 04:14:55;;;;;;;69.28;30.73;;;;;;;7.36;100.00;96446.22;5024198;28;20064;-60
2021/10/13 04:17:22;;;;;;;26.30;10.30;;;;;;;7.33;100.00;96446.91;5022584;28;20045;-59
2021/10/13 04:19:49;;;;;;;9.60;5.10;;;;;;;7.31;100.00;96449.25;5024002;28;20060;-60
2021/10/13 04:22:15;;;;;;;6.95;3.67;;;;;;;7.40;100.00;96452.56;5022536;28;20532;-59
2021/10/13 04:24:42;;;;;;;11.60;5.03;;;;;;;7.40;100.00;96447.06;5022428;28;20061;-60
2021/10/13 04:27:09;;;;;;;26.15;10.05;;;;;;;7.32;100.00;96444.53;5022719;28;20331;-59
2021/10/13 04:29:35;;;;;;;25.52;12.52;;;;;;;6.92;100.00;96370.59;5023916;28;20065;-59
2021/10/13 04:32:03;;;;;;;16.35;8.65;;;;;;;7.29;100.00;96429.53;5023479;28;20516;-59
2021/10/13 04:34:29;;;;;;;20.50;6.90;;;;;;;6.38;100.00;96298.31;5023735;28;20061;-61
2021/10/13 04:36:56;;;;;;;193.00;51.58;;;;;;;7.34;100.00;96459.53;5023724;28;20531;-60
2021/10/13 04:39:23;;;;;;;381.95;102.38;;;;;;;7.31;100.00;96471.28;5023711;28;20053;-60
2021/10/13 04:41:50;;;;;;;185.57;51.63;;;;;;;7.37;100.00;96469.84;5023636;28;20060;-60
2021/10/13 04:44:17;;;;;;;75.43;23.85;;;;;;;7.41;100.00;96465.19;5021992;28;20532;-59
2021/10/13 04:46:43;;;;;;;55.45;20.30;;;;;;;7.15;100.00;96412.72;5023996;28;20049;-60
2021/10/13 04:49:10;;;;;;;33.10;15.93;;;;;;;7.04;100.00;96397.97;5023435;28;20054;-59
2021/10/13 04:51:37;;;;;;;19.15;10.48;;;;;;;7.35;100.00;96450.09;5023340;28;20511;-59
2021/10/13 04:54:03;;;;;;;9.15;5.53;;;;;;;7.05;100.00;96402.28;5022835;28;20049;-59
2021/10/13 04:56:30;;;;;;;24.20;8.32;;;;;;;7.61;100.00;96464.00;5023389;28;20056;-59
2021/10/13 04:58:57;;;;;;;51.10;24.42;;;;;;;7.63;100.00;96466.41;5023589;28;20045;-60
2021/10/13 05:01:23;;;;;;;18.33;9.07;;;;;;;7.35;100.00;96422.56;5021256;28;20059;-59
2021/10/13 05:03:50;;;;;;;11.63;5.78;;;;;;;7.85;100.00;96470.34;5022246;28;20536;-59
2021/10/13 05:06:17;;;;;;;11.23;5.65;;;;;;;7.76;100.00;96472.53;5022905;28;20053;-59
2021/10/13 05:08:44;;;;;;;10.18;5.40;;;;;;;7.41;100.00;96432.13;5024341;28;20057;-60
2021/10/13 05:11:10;;;;;;;8.23;4.00;;;;;;;8.08;100.00;96476.66;5027566;28;20053;-62
2021/10/13 05:13:37;;;;;;;7.93;3.70;;;;;;;8.17;100.00;96479.97;5027437;28;20057;-60
2021/10/13 05:16:04;;;;;;;7.18;4.22;;;;;;;8.28;100.00;96461.66;5027389;28;20053;-62
2021/10/13 05:18:31;;;;;;;15.20;7.55;;;;;;;8.65;100.00;96491.03;5026103;28;20553;-59
2021/10/13 05:20:57;;;;;;;12.07;5.78;;;;;;;8.74;100.00;96493.56;5027678;28;20500;-60
2021/10/13 05:23:24;;;;;;;4.70;3.17;;;;;;;8.79;100.00;96491.25;5027587;28;20049;-60
2021/10/13 05:25:51;;;;;;;16.50;11.38;;;;;;;9.01;100.00;96489.56;5027502;28;20049;-61
2021/10/13 05:28:18;;;;;;;8.38;4.32;;;;;;;8.71;100.00;96433.56;5025917;28;20088;-60
2021/10/13 05:30:44;;;;;;;4.43;2.80;;;;;;;9.46;100.00;96503.22;5026732;28;20053;-60
2021/10/13 05:33:11;;;;;;;10.13;5.20;;;;;;;9.32;100.00;96467.13;5027150;28;20102;-60
2021/10/13 05:35:38;;;;;;;6.63;3.78;;;;;;;9.63;99.04;96508.16;5025425;28;20452;-60
2021/10/13 05:38:05;;;;;;;3.92;2.28;;;;;;;9.58;97.94;96518.78;5027238;28;20055;-61
2021/10/13 05:40:32;;;;;;;20.63;7.50;;;;;;;9.72;96.73;96522.47;5027285;28;20076;-60
2021/10/13 05:42:59;;;;;;;33.60;13.93;;;;;;;9.28;97.88;96462.72;5026051;28;20065;-61
2021/10/13 05:45:26;;;;;;;27.17;12.82;;;;;;;9.73;97.38;96524.09;5026684;28;20053;-60
2021/10/13 05:47:52;;;;;;;22.38;11.43;;;;;;;9.28;97.26;96499.41;5027084;28;20061;-60
2021/10/13 05:50:19;;;;;;;14.65;7.65;;;;;;;9.34;98.22;96499.91;5026297;28;20049;-61
2021/10/13 05:52:46;;;;;;;6.22;3.85;;;;;;;9.61;96.48;96538.16;5026866;28;20503;-63
2021/10/13 05:55:33;;;;;;;5.28;3.53;;;;;;;9.49;96.42;96523.78;5027202;28;20080;-61
2021/10/13 05:58:04;;;;;;;6.40;3.42;;;;;;;9.34;98.13;96495.19;5027197;28;20428;-60
2021/10/13 06:00:31;;;;;;;4.22;2.67;;;;;;;9.61;98.45;96549.22;5026975;28;20045;-60
2021/10/13 06:03:01;;;;;;;2.67;1.90;;;;;;;9.17;99.75;96473.63;5026075;28;20543;-60
2021/10/13 06:05:28;;;;;;;4.13;2.55;;;;;;;9.90;99.55;96562.22;5025060;28;20073;-62
2021/10/13 06:07:54;;;;;;;3.80;2.80;;;;;;;10.08;96.10;96563.25;5025980;28;20041;-59
2021/10/13 06:10:21;;;;;;;4.13;2.10;;;;;;;10.12;95.95;96566.84;5021982;28;20041;-61
2021/10/13 06:12:48;;;;;;;3.33;2.15;;;;;;;10.09;96.15;96567.63;5025135;28;20068;-61
2021/10/13 06:15:15;;;;;;;3.28;2.30;;;;;;;9.90;98.54;96566.94;5024536;28;20045;-62
2021/10/13 06:17:41;;;;;;;2.40;1.90;;;;;;;9.78;97.26;96512.69;5025227;28;20069;-70
2021/10/13 06:20:08;;;;;;;6.22;4.32;;;;;;;10.21;97.73;96550.72;5025624;28;20053;-68
2021/10/13 06:22:37;;;;;;;11.45;5.70;;;;;;;10.55;96.59;96546.72;5024844;28;20059;-69
2021/10/13 06:25:06;;;;;;;11.95;6.40;;;;;;;10.86;94.10;96547.38;5023915;28;20126;-61
2021/10/13 06:27:33;;;;;;;12.85;7.53;;;;;;;11.21;92.77;96580.88;5024111;28;20115;-68
2021/10/13 06:30:00;;;;;;;16.85;9.57;;;;;;;11.38;91.12;96583.78;5024148;28;20057;-66
2021/10/13 06:32:27;;;;;;;17.88;11.10;;;;;;;11.56;88.57;96587.47;5025703;28;20053;-68
2021/10/13 06:34:54;;;;;;;15.63;10.02;;;;;;;11.50;88.83;96566.81;5025841;28;20053;-58
2021/10/13 06:37:20;;;;;;;16.98;10.68;;;;;;;11.64;89.36;96561.38;5022869;28;20053;-62
2021/10/13 06:39:47;;;;;;;20.98;12.23;;;;;;;11.71;88.52;96588.38;5024559;28;20092;-66
2021/10/13 06:42:14;;;;;;;24.17;13.18;;;;;;;12.05;87.55;96592.47;5024374;28;20050;-68
2021/10/13 06:44:40;;;;;;;21.50;13.48;;;;;;;12.05;85.79;96553.59;5024013;28;20045;-67
2021/10/13 06:47:12;;;;;;;16.73;9.43;;;;;;;12.42;84.32;96595.78;5025401;28;20428;-61
2021/10/13 06:49:38;;;;;;;15.95;8.02;;;;;;;11.24;82.95;96452.59;5025482;28;20053;-60
2021/10/13 06:52:05;;;;;;;9.43;6.40;;;;;;;11.95;81.16;96493.28;5028326;28;20046;-59
2021/10/13 06:54:32;;;;;;;9.43;6.15;;;;;;;12.46;78.94;96574.34;5024322;28;20104;-69
2021/10/13 06:56:59;;;;;;;15.38;8.52;;;;;;;12.39;81.47;96563.25;5024341;28;20055;-59
2021/10/13 06:59:25;;;;;;;14.35;7.70;;;;;;;11.76;82.75;96554.69;5024503;28;20049;-60
2021/10/13 07:01:52;;;;;;;11.82;6.53;;;;;;;11.36;83.95;96493.84;5024207;28;20065;-60
2021/10/13 07:04:19;;;;;;;14.00;6.32;;;;;;;12.13;82.64;96588.53;5024551;28;20052;-62
2021/10/13 07:06:46;;;;;;;13.68;6.53;;;;;;;12.53;82.71;96629.94;5022498;28;20136;-66
2021/10/13 07:09:12;;;;;;;9.10;5.38;;;;;;;12.85;80.59;96636.34;5024687;28;20060;-71
2021/10/13 07:11:39;;;;;;;9.93;5.97;;;;;;;10.64;83.18;96303.47;5023372;28;20516;-60
2021/10/13 07:14:06;;;;;;;9.18;4.65;;;;;;;12.30;82.73;96615.56;5024385;28;20046;-68
2021/10/13 07:16:33;;;;;;;6.22;4.10;;;;;;;12.87;82.77;96628.41;5023852;28;20057;-59
2021/10/13 07:18:59;;;;;;;8.18;3.30;;;;;;;12.88;84.50;96591.06;5024585;28;20049;-62
2021/10/13 07:21:26;;;;;;;3.13;2.60;;;;;;;12.97;83.51;96622.06;5024936;28;20431;-60
2021/10/13 07:23:53;;;;;;;2.90;2.28;;;;;;;12.69;82.57;96632.34;5024437;28;20057;-63
2021/10/13 07:26:20;;;;;;;2.47;1.90;;;;;;;12.71;83.88;96630.75;5024887;28;20057;-63
2021/10/13 07:28:47;;;;;;;2.30;2.10;;;;;;;13.19;83.99;96609.81;5023961;28;20419;-66
2021/10/13 07:31:13;;;;;;;2.60;2.00;;;;;;;13.65;80.31;96638.38;5022415;28;20049;-71
2021/10/13 07:33:40;;;;;;;2.38;1.80;;;;;;;13.63;79.49;96637.97;5022254;28;20045;-65
2021/10/13 07:36:07;;;;;;;2.15;1.95;;;;;;;13.21;80.30;96549.00;5021608;28;20599;-61
2021/10/13 07:38:34;;;;;;;3.78;2.25;;;;;;;13.45;80.26;96603.81;5022624;28;20060;-62
2021/10/13 07:41:01;;;;;;;2.67;1.90;;;;;;;14.06;81.23;96638.69;5023737;28;20085;-66
2021/10/13 07:43:30;;;;;;;3.35;2.00;;;;;;;13.57;78.89;96536.63;5023879;28;20046;-61
2021/10/13 07:45:57;;;;;;;2.47;2.00;;;;;;;14.13;76.55;96582.16;5012655;28;20052;-72
2021/10/13 07:48:25;;;;;;;2.15;1.50;;;;;;;12.04;77.88;96374.38;5026379;28;20513;-71
2021/10/13 07:50:52;;;;;;;2.05;1.85;;;;;;;14.29;76.23;96641.03;5021690;28;20053;-57
2021/10/13 07:53:19;;;;;;;2.15;1.92;;;;;;;13.52;80.48;96648.31;5023840;28;20049;-67
2021/10/13 07:55:50;;;;;;;3.53;1.67;;;;;;;14.00;80.20;96647.84;5023705;28;20059;-67
2021/10/13 07:58:16;;;;;;;20.00;12.30;;;;;;;14.36;78.16;96640.97;5023809;28;20072;-67
2021/10/13 08:00:43;;;;;;;2.50;2.03;;;;;;;14.20;75.90;96654.53;5022075;28;20059;-66
2021/10/13 08:03:11;;;;;;;2.85;2.33;;;;;;;13.84;79.42;96641.91;5022699;28;20049;-66
2021/10/13 08:05:43;;;;;;;2.92;2.45;;;;;;;14.09;77.73;96598.88;5021904;28;20088;-67
2021/10/13 08:08:10;;;;;;;4.28;3.15;;;;;;;14.16;74.40;96570.19;5023657;28;20136;-67
2021/10/13 08:10:37;;;;;;;4.07;3.25;;;;;;;14.79;69.69;96642.34;5021718;28;20586;-66
2021/10/13 08:13:03;;;;;;;3.28;2.72;;;;;;;14.99;69.04;96651.78;5022719;28;20075;-65
2021/10/13 08:15:30;;;;;;;13.07;7.05;;;;;;;15.23;66.01;96656.41;5022951;28;20063;-59
2021/10/13 08:18:00;;;;;;;10.75;4.65;;;;;;;15.47;64.27;96660.22;5023611;28;20045;-61
2021/10/13 08:20:27;;;;;;;4.63;3.00;;;;;;;15.67;62.35;96653.69;5023288;28;20046;-66
2021/10/13 08:22:54;;;;;;;3.58;2.90;;;;;;;15.88;61.97;96653.47;5024576;28;20083;-66
2021/10/13 08:25:21;;;;;;;14.23;6.20;;;;;;;15.72;64.73;96653.22;5023216;28;20054;-66
2021/10/13 08:27:48;;;;;;;3.33;2.83;;;;;;;15.78;63.27;96608.88;5022737;28;20055;-61
2021/10/13 08:30:15;;;;;;;3.30;3.00;;;;;;;16.42;63.15;96644.06;5023312;28;20067;-66
2021/10/13 08:32:42;;;;;;;17.65;7.18;;;;;;;16.48;61.32;96653.63;5023528;28;20583;-65
2021/10/13 08:35:09;;;;;;;5.63;3.95;;;;;;;16.52;60.19;96651.56;5023494;28;20045;-60
2021/10/13 08:37:36;;;;;;;3.85;3.38;;;;;;;16.41;60.67;96652.88;5022178;28;20049;-60
2021/10/13 08:40:06;;;;;;;3.97;3.47;;;;;;;16.08;60.62;96623.72;5023388;28;20489;-60
2021/10/13 08:42:33;;;;;;;5.00;3.65;;;;;;;16.53;59.81;96644.00;5024211;28;20453;-65
2021/10/13 08:45:00;;;;;;;5.13;3.70;;;;;;;16.70;59.61;96642.16;5022068;28;20772;-65
2021/10/13 08:47:27;;;;;;;7.75;4.53;;;;;;;16.92;58.98;96649.03;5022015;28;20152;-65
2021/10/13 08:49:56;;;;;;;3.85;3.55;;;;;;;16.09;57.10;96501.59;5021997;28;20049;-66
2021/10/13 08:52:22;;;;;;;3.78;3.45;;;;;;;17.06;57.06;96652.44;5022939;28;20049;-66
2021/10/13 08:54:49;;;;;;;5.00;4.30;;;;;;;16.82;58.75;96636.00;5021931;28;20045;-69
2021/10/13 08:57:22;;;;;;;5.07;4.25;;;;;;;17.10;58.25;96644.00;5023048;28;20049;-61
2021/10/13 08:59:51;;;;;;;5.78;3.55;;;;;;;17.11;57.45;96598.78;5023288;28;20049;-66
2021/10/13 09:02:41;;;;;;;12.32;9.05;;;;;;;17.26;57.75;96646.97;5023465;28;20085;-66
2021/10/13 09:05:17;;;;;;;10.18;7.88;;;;;;;17.03;59.00;96649.69;5023524;28;20049;-61
2021/10/13 09:07:53;;;;;;;8.18;5.40;;;;;;;17.17;58.77;96638.28;5021911;28;20077;-62
2021/10/13 09:10:34;;;;;;;6.93;4.85;;;;;;;17.32;58.80;96639.66;5023047;28;20068;-64
2021/10/13 09:13:04;;;;;;;5.00;4.05;;;;;;;17.14;59.25;96653.13;5022056;28;20060;-68
2021/10/13 09:15:32;;;;;;;3.80;3.35;;;;;;;16.78;56.21;96626.88;5019137;28;20056;-64
2021/10/13 09:18:01;;;;;;;4.22;3.53;;;;;;;16.91;57.76;96655.88;5020668;28;20053;-61
2021/10/13 09:20:40;;;;;;;4.75;3.78;;;;;;;16.36;57.10;96606.59;5020621;28;20057;-66
2021/10/13 09:23:14;;;;;;;4.75;3.47;;;;;;;17.01;56.47;96666.13;5022336;28;20046;-60
2021/10/13 09:25:42;;;;;;;3.28;2.70;;;;;;;15.95;55.46;96600.31;5018173;28;20053;-62
2021/10/13 09:28:09;;;;;;;6.13;4.40;;;;;;;16.33;56.87;96674.53;5022484;28;20062;-59
2021/10/13 09:30:39;;;;;;;5.35;3.63;;;;;;;16.32;56.62;96658.97;5021609;28;20061;-61
2021/10/13 09:33:17;;;;;;;4.07;3.45;;;;;;;16.07;58.53;96583.03;5022874;28;20046;-66
2021/10/13 09:35:48;;;;;;;4.25;3.75;;;;;;;15.34;57.66;96648.75;5022611;28;20057;-60
2021/10/13 09:38:21;;;;;;;3.78;3.40;;;;;;;14.93;60.80;96664.56;5021743;28;20579;-66
2021/10/13 09:40:49;;;;;;;4.30;3.33;;;;;;;15.42;63.21;96692.19;5022995;28;20069;-61
2021/10/13 09:43:37;;;;;;;17.35;6.00;;;;;;;14.95;60.22;96578.50;5023037;28;20096;-63
2021/10/13 09:46:11;;;;;;;6.57;4.60;;;;;;;15.85;61.70;96682.25;5020467;28;20046;-60
2021/10/13 09:48:56;;;;;;;6.30;3.88;;;;;;;15.21;61.95;96557.59;5021873;28;20140;-69
2021/10/13 09:51:23;;;;;;;8.43;4.90;;;;;;;16.13;60.66;96678.34;5022653;28;20341;-59
2021/10/13 09:53:51;;;;;;;7.75;5.25;;;;;;;16.05;60.28;96680.44;5022498;28;20077;-68
2021/10/13 09:56:38;;;;;;;6.15;4.32;;;;;;;15.60;59.72;96619.44;5026254;28;20064;-66
2021/10/13 09:59:13;;;;;;;5.53;4.05;;;;;;;15.57;59.21;96621.03;5026524;28;20093;-60
2021/10/13 10:01:53;;;;;;;4.95;3.50;;;;;;;16.01;60.11;96690.06;5026334;28;20057;-59
2021/10/13 10:04:23;;;;;;;6.75;4.40;;;;;;;16.09;60.62;96686.00;5026189;28;20107;-59
2021/10/13 10:06:58;;;;;;;8.38;5.18;;;;;;;16.27;60.51;96698.56;5027325;28;20049;-59
2021/10/13 10:09:26;;;;;;;10.55;6.53;;;;;;;16.31;61.61;96693.72;5026529;28;20569;-66
2021/10/13 10:12:08;;;;;;;5.70;3.78;;;;;;;16.35;59.83;96691.69;5025227;28;20060;-67
2021/10/13 10:14:46;;;;;;;4.90;2.92;;;;;;;15.74;60.09;96616.50;5026456;28;20076;-59
2021/10/13 10:17:34;;;;;;;5.53;3.67;;;;;;;16.31;59.34;96698.53;5026082;28;20513;-60
2021/10/13 10:20:00;;;;;;;3.95;3.17;;;;;;;16.40;60.08;96696.84;5026098;28;20056;-67
2021/10/13 10:22:27;;;;;;;3.22;2.90;;;;;;;16.03;59.84;96642.94;5024986;28;20055;-59
2021/10/13 10:24:55;;;;;;;3.40;2.90;;;;;;;16.43;59.33;96690.41;5026282;28;20065;-59
2021/10/13 10:27:35;;;;;;;4.97;3.13;;;;;;;16.26;60.15;96660.66;5026025;28;20099;-58
2021/10/13 10:30:08;;;;;;;5.22;3.90;;;;;;;16.57;59.37;96711.84;5024538;28;20049;-59
2021/10/13 10:32:36;;;;;;;7.60;5.43;;;;;;;16.37;60.73;96689.28;5026002;28;20057;-60
2021/10/13 10:35:05;;;;;;;5.47;4.32;;;;;;;16.32;62.52;96706.50;4983622;28;20054;-60
2021/10/13 10:37:41;;;;;;;8.68;6.20;;;;;;;16.32;63.55;96706.50;5002660;28;20056;-61
2021/10/13 10:40:21;;;;;;;2.85;2.65;;;;;;;16.32;63.25;96711.28;5002303;28;20062;-60
2021/10/13 10:43:21;;;;;;;5.07;4.32;;;;;;;16.01;66.21;96704.81;5002802;28;20062;-60
2021/10/13 10:45:54;;;;;;;23.10;12.35;;;;;;;15.45;67.91;96585.28;4999067;28;20343;-61
2021/10/13 10:48:23;;;;;;;5.55;4.13;;;;;;;15.72;63.09;96569.47;5002257;28;20058;-60
2021/10/13 10:50:53;;;;;;;26.83;12.77;;;;;;;16.73;64.92;96708.44;4984400;28;20046;-63
2021/10/13 10:53:28;;;;;;;9.15;5.55;;;;;;;16.47;66.56;96656.84;5001461;28;20054;-63
2021/10/13 10:56:16;;;;;;;4.47;3.90;;;;;;;16.64;63.71;96712.53;5000364;28;20158;-60
2021/10/13 10:59:05;;;;;;;4.60;3.70;;;;;;;16.68;60.70;96718.09;5001940;28;20480;-60
2021/10/13 11:01:34;;;;;;;7.78;5.32;;;;;;;16.68;65.40;96706.13;4982063;28;20062;-58
2021/10/13 11:04:11;;;;;;;5.10;3.63;;;;;;;16.31;64.76;96668.56;4997260;28;20604;-62
2021/10/13 11:06:46;;;;;;;7.60;4.90;;;;;;;16.89;65.55;96701.06;5006500;28;20405;-62
2021/10/13 11:09:13;;;;;;;7.40;4.70;;;;;;;16.49;65.54;96660.81;5023293;28;20527;-60
2021/10/13 11:11:42;;;;;;;9.82;4.45;;;;;;;16.78;64.25;96699.59;5021764;28;20053;-61
2021/10/13 11:14:21;;;;;;;11.90;5.65;;;;;;;16.16;67.94;96655.97;5023817;28;20064;-63
2021/10/13 11:16:57;;;;;;;51.13;18.70;;;;;;;16.56;67.06;96705.47;5020018;28;20049;-62
2021/10/13 11:19:28;;;;;;;11.65;5.68;;;;;;;16.42;66.96;96704.81;5024666;28;20144;-62
2021/10/13 11:22:03;;;;;;;30.33;13.40;;;;;;;16.47;69.24;96707.19;5023838;28;20065;-59
2021/10/13 11:24:34;;;;;;;5.88;3.80;;;;;;;15.90;66.09;96667.81;5023332;28;20132;-61
2021/10/13 11:27:01;;;;;;;4.93;3.92;;;;;;;16.08;65.04;96634.91;5024762;28;20061;-60
2021/10/13 11:29:34;;;;;;;5.43;3.15;;;;;;;15.39;66.77;96712.53;5025119;28;20416;-61
2021/10/13 11:32:16;;;;;;;4.00;3.55;;;;;;;16.03;66.94;96719.16;5024982;28;20064;-61
2021/10/13 11:35:03;;;;;;;9.70;5.28;;;;;;;16.67;66.55;96715.72;5023122;28;20049;-62
2021/10/13 11:37:31;;;;;;;5.72;3.92;;;;;;;15.63;66.60;96602.66;5024562;28;20579;-62
2021/10/13 11:39:58;;;;;;;6.32;3.60;;;;;;;16.26;65.02;96677.44;5024420;28;20535;-60
2021/10/13 11:42:27;;;;;;;6.07;3.97;;;;;;;16.68;63.74;96717.31;5024134;28;20056;-60